Time;durP1;ratioP1;P1;durP2;ratioP2;P2;SDS_P1;SDS_P2;PMS_P1;PMS_P2;Temp;Humidity;BMP_temperature;BMP_pressure;BME280_temperature;BME280_humidity;BME280_pressure;Samples;Min_cycle;Max_cycle;Signal;HPM_P1;HPM_P2
2022/09/01 00:01:40;;;;;;;0.20;0.20;;;17.20;59.50;;;;;;6274850;22;20079;-73
2022/09/01 00:04:11;;;;;;;0.77;0.43;;;17.20;59.60;;;;;;6275614;22;20413;-73
2022/09/01 00:06:39;;;;;;;0.30;0.30;;;17.20;59.70;;;;;;6247769;22;20006;-73
2022/09/01 00:09:09;;;;;;;0.22;0.22;;;17.10;59.70;;;;;;6248960;22;20003;-72
2022/09/01 00:11:35;;;;;;;0.20;0.20;;;17.10;59.80;;;;;;6275381;22;20003;-73
2022/09/01 00:14:01;;;;;;;0.30;0.30;;;17.10;60.00;;;;;;6248306;22;20015;-73
2022/09/01 00:16:29;;;;;;;0.25;0.25;;;17.00;60.00;;;;;;6248085;22;20007;-73
2022/09/01 00:18:55;;;;;;;0.35;0.25;;;17.00;60.00;;;;;;6275315;22;20007;-73
2022/09/01 00:21:27;;;;;;;0.50;0.30;;;17.00;60.10;;;;;;6275417;22;20087;-72
2022/09/01 00:23:53;;;;;;;0.20;0.20;;;17.00;60.10;;;;;;6275416;22;20424;-74
2022/09/01 00:26:19;;;;;;;0.20;0.20;;;16.90;60.10;;;;;;6248416;22;19999;-73
2022/09/01 00:28:45;;;;;;;0.30;0.30;;;17.00;60.30;;;;;;6244857;22;20432;-73
2022/09/01 00:31:13;;;;;;;0.45;0.40;;;17.00;60.30;;;;;;6274880;22;20000;-73
2022/09/01 00:33:39;;;;;;;0.20;0.20;;;16.90;60.40;;;;;;6247202;22;20057;-73
2022/09/01 00:36:06;;;;;;;0.30;0.30;;;16.90;60.50;;;;;;6274898;22;20324;-73
2022/09/01 00:38:33;;;;;;;0.38;0.30;;;16.90;60.50;;;;;;6275696;22;20031;-73
2022/09/01 00:40:59;;;;;;;0.47;0.47;;;16.80;60.50;;;;;;6248531;22;20049;-73
2022/09/01 00:43:47;;;;;;;0.25;0.25;;;16.80;60.60;;;;;;6275071;22;20011;-73
2022/09/01 00:46:19;;;;;;;0.20;0.20;;;16.80;60.80;;;;;;6247808;22;20332;-74
2022/09/01 00:48:47;;;;;;;0.30;0.30;;;16.80;60.70;;;;;;6246289;22;20000;-73
2022/09/01 00:51:14;;;;;;;0.30;0.30;;;16.80;60.80;;;;;;6274749;22;20000;-73
2022/09/01 00:53:42;;;;;;;0.52;0.28;;;16.80;60.80;;;;;;6275027;22;20320;-73
2022/09/01 00:56:09;;;;;;;0.22;0.22;;;16.80;60.80;;;;;;6275429;22;20000;-73
2022/09/01 00:58:37;;;;;;;0.30;0.30;;;16.80;60.80;;;;;;6275705;22;20019;-72
2022/09/01 01:01:05;;;;;;;0.45;0.30;;;16.70;60.80;;;;;;6246712;22;20015;-72
2022/09/01 01:03:31;;;;;;;0.20;0.20;;;16.80;61.00;;;;;;6245914;22;20004;-72
2022/09/01 01:06:02;;;;;;;0.25;0.22;;;16.70;61.00;;;;;;6248358;22;20481;-73
2022/09/01 01:08:32;;;;;;;0.30;0.30;;;16.70;61.00;;;;;;6219699;22;19996;-73
2022/09/01 01:11:00;;;;;;;0.30;0.30;;;16.60;61.00;;;;;;6275472;22;20004;-72
2022/09/01 01:13:27;;;;;;;0.30;0.30;;;16.70;61.10;;;;;;6247795;22;21736;-72
2022/09/01 01:15:53;;;;;;;0.20;0.20;;;16.60;61.10;;;;;;6274696;22;20073;-72
2022/09/01 01:18:19;;;;;;;0.50;0.40;;;16.60;61.20;;;;;;6274970;22;20358;-73
2022/09/01 01:23:42;;;;;;;0.20;0.20;;;16.60;61.20;;;;;;6251871;22;20074;-74
2022/09/01 01:26:09;;;;;;;0.30;0.30;;;16.60;61.20;;;;;;6223264;22;20362;-73
2022/09/01 01:28:38;;;;;;;0.30;0.30;;;16.60;61.20;;;;;;6248455;22;19999;-72
2022/09/01 01:31:11;;;;;;;0.30;0.30;;;16.50;61.80;;;;;;6275230;22;20316;-73
2022/09/01 01:33:44;;;;;;;0.30;0.30;;;16.60;61.10;;;;;;6249423;22;20332;-73
2022/09/01 01:36:15;;;;;;;0.98;0.25;;;16.60;61.20;;;;;;6274540;22;20004;-74
2022/09/01 01:38:45;;;;;;;0.47;0.35;;;16.60;61.10;;;;;;6247961;22;20035;-73
2022/09/01 01:41:13;;;;;;;0.28;0.28;;;16.60;61.10;;;;;;6274611;22;20305;-73
2022/09/01 01:43:40;;;;;;;0.40;0.40;;;16.60;61.00;;;;;;6274586;22;20016;-73
2022/09/01 01:46:08;;;;;;;0.10;0.10;;;16.70;61.00;;;;;;6274730;22;19996;-73
2022/09/01 01:48:36;;;;;;;0.40;0.40;;;16.70;61.00;;;;;;6275022;22;20428;-73
2022/09/01 01:51:04;;;;;;;0.32;0.32;;;16.70;61.00;;;;;;6274169;22;20000;-73
2022/09/01 01:53:31;;;;;;;0.30;0.30;;;16.70;61.00;;;;;;6274731;22;20008;-72
2022/09/01 01:55:58;;;;;;;0.30;0.30;;;16.70;61.60;;;;;;6275000;22;20003;-73
2022/09/01 01:58:27;;;;;;;0.30;0.30;;;16.70;60.90;;;;;;6275387;22;20090;-73
2022/09/01 02:00:54;;;;;;;0.20;0.20;;;16.70;60.90;;;;;;6247680;22;20424;-73
2022/09/01 02:03:23;;;;;;;0.20;0.20;;;16.80;61.00;;;;;;6275214;22;20106;-73
2022/09/01 02:05:52;;;;;;;0.35;0.20;;;16.70;60.90;;;;;;6274847;22;20014;-72
2022/09/01 02:08:20;;;;;;;0.20;0.20;;;16.70;60.90;;;;;;6274556;22;20393;-72
2022/09/01 02:10:49;;;;;;;0.20;0.20;;;16.70;60.90;;;;;;6275324;22;20000;-73
2022/09/01 02:13:17;;;;;;;0.30;0.20;;;16.70;60.90;;;;;;6275166;22;20000;-73
2022/09/01 02:15:48;;;;;;;0.20;0.20;;;16.70;60.90;;;;;;6274655;22;20387;-73
2022/09/01 02:18:16;;;;;;;;;;;16.70;60.90;;;;;;6249128;22;20050;-73
2022/09/01 02:20:46;;;;;;;0.20;0.20;;;16.70;60.80;;;;;;6275208;22;20030;-72
2022/09/01 02:23:14;;;;;;;0.20;0.20;;;16.70;60.80;;;;;;6274559;22;20355;-73
2022/09/01 02:25:43;;;;;;;0.25;0.25;;;16.70;60.80;;;;;;6275179;22;20019;-73
2022/09/01 02:28:14;;;;;;;0.55;0.20;;;16.70;60.90;;;;;;6222486;22;20074;-72
2022/09/01 02:30:48;;;;;;;0.30;0.30;;;16.70;60.90;;;;;;6274462;22;20416;-72
2022/09/01 02:33:17;;;;;;;;;;;16.70;60.90;;;;;;6275398;22;20031;-72
2022/09/01 02:35:48;;;;;;;0.20;0.20;;;16.70;60.90;;;;;;6274458;22;19899;-73
2022/09/01 02:38:16;;;;;;;0.20;0.20;;;16.70;60.80;;;;;;6274671;22;20006;-73
2022/09/01 02:40:45;;;;;;;0.30;0.30;;;16.70;60.90;;;;;;6247821;22;20057;-72
2022/09/01 02:43:12;;;;;;;0.20;0.20;;;16.70;60.90;;;;;;6274127;22;20074;-73
2022/09/01 02:45:38;;;;;;;0.13;0.10;;;16.60;60.90;;;;;;6247533;22;20012;-73
2022/09/01 02:48:08;;;;;;;0.30;0.30;;;16.60;61.00;;;;;;6247588;22;20423;-72
2022/09/01 02:50:36;;;;;;;0.20;0.20;;;16.60;61.10;;;;;;6247979;22;20368;-72
2022/09/01 02:53:08;;;;;;;0.20;0.20;;;16.60;61.10;;;;;;6247718;22;19996;-72
2022/09/01 02:55:36;;;;;;;0.17;0.17;;;16.60;61.20;;;;;;6248545;22;20000;-72
2022/09/01 02:58:02;;;;;;;0.73;0.30;;;16.50;61.20;;;;;;6274772;22;20353;-73
2022/09/01 03:00:30;;;;;;;0.30;0.30;;;16.50;61.30;;;;;;6274167;22;19999;-73
2022/09/01 03:02:57;;;;;;;0.38;0.30;;;16.40;61.30;;;;;;6274228;22;20443;-72
2022/09/01 03:05:27;;;;;;;0.35;0.30;;;16.50;61.50;;;;;;6275413;22;20012;-72
2022/09/01 03:07:56;;;;;;;0.40;0.20;;;16.50;61.50;;;;;;6275657;22;19996;-72
2022/09/01 03:10:27;;;;;;;0.25;0.25;;;16.40;61.50;;;;;;6248356;22;20114;-72
2022/09/01 03:12:53;;;;;;;;;;;16.40;61.60;;;;;;6249453;22;20087;-73
2022/09/01 03:15:20;;;;;;;0.20;0.20;;;16.40;61.60;;;;;;6248343;22;19899;-72
2022/09/01 03:17:47;;;;;;;0.28;0.28;;;16.30;61.50;;;;;;6275304;22;20011;-73
2022/09/01 03:20:15;;;;;;;0.85;0.30;;;16.20;61.60;;;;;;6248509;22;20445;-73
2022/09/01 03:22:41;;;;;;;0.20;0.20;;;16.30;61.70;;;;;;6248747;22;20027;-73
2022/09/01 03:25:07;;;;;;;0.30;0.30;;;16.30;61.70;;;;;;6275096;22;20019;-73
2022/09/01 03:27:32;;;;;;;0.20;0.20;;;16.20;61.60;;;;;;6275377;22;20006;-72
2022/09/01 03:29:58;;;;;;;0.10;0.10;;;16.20;61.70;;;;;;6275393;22;20019;-73
2022/09/01 03:32:24;;;;;;;0.20;0.20;;;16.20;61.70;;;;;;6275357;22;21253;-73
2022/09/01 03:34:50;;;;;;;0.22;0.22;;;16.10;61.70;;;;;;6275101;22;20008;-73
2022/09/01 03:37:16;;;;;;;0.40;0.40;;;16.20;61.70;;;;;;6275837;22;20000;-72
2022/09/01 03:39:42;;;;;;;0.30;0.30;;;16.10;61.70;;;;;;6223105;22;20008;-72
2022/09/01 03:42:10;;;;;;;0.30;0.30;;;16.10;61.80;;;;;;6275120;22;20450;-72
2022/09/01 03:44:39;;;;;;;0.30;0.30;;;16.10;61.80;;;;;;6275073;22;20016;-73
2022/09/01 03:47:09;;;;;;;0.20;0.20;;;16.10;61.80;;;;;;6275854;22;20003;-73
2022/09/01 03:49:38;;;;;;;0.30;0.30;;;16.10;61.90;;;;;;6275943;22;20000;-73
2022/09/01 03:52:07;;;;;;;0.30;0.30;;;16.10;61.90;;;;;;6248655;22;20000;-73
2022/09/01 03:54:33;;;;;;;0.30;0.30;;;16.10;62.00;;;;;;6275957;22;20073;-73
2022/09/01 03:56:59;;;;;;;0.20;0.20;;;16.00;62.00;;;;;;6276132;22;20000;-72
2022/09/01 03:59:27;;;;;;;0.20;0.20;;;16.00;62.60;;;;;;6248451;22;20408;-72
2022/09/01 04:01:53;;;;;;;0.68;0.40;;;16.00;62.00;;;;;;6275340;22;20016;-73
2022/09/01 04:04:18;;;;;;;0.38;0.38;;;16.00;62.10;;;;;;6275317;22;20091;-72
2022/09/01 04:06:45;;;;;;;0.35;0.25;;;15.90;62.10;;;;;;6276185;22;20081;-72
2022/09/01 04:09:11;;;;;;;0.20;0.20;;;15.90;62.20;;;;;;6248759;22;20004;-73
2022/09/01 04:11:39;;;;;;;0.17;0.17;;;15.90;62.10;;;;;;6248331;22;20022;-72
2022/09/01 04:14:05;;;;;;;1.33;0.30;;;15.90;62.20;;;;;;6275283;22;20015;-72
2022/09/01 04:19:19;;;;;;;0.20;0.20;;;15.80;62.20;;;;;;6251404;22;20019;-73
2022/09/01 04:21:49;;;;;;;0.20;0.20;;;15.80;62.20;;;;;;6275834;22;20022;-73
2022/09/01 04:24:15;;;;;;;0.40;0.40;;;15.80;62.20;;;;;;6272973;22;20382;-72
2022/09/01 04:26:41;;;;;;;0.20;0.20;;;15.80;62.20;;;;;;6248204;22;20003;-72
2022/09/01 04:29:08;;;;;;;0.30;0.22;;;15.80;62.30;;;;;;6247543;22;20302;-72
2022/09/01 04:31:37;;;;;;;0.17;0.17;;;15.80;62.30;;;;;;6275977;22;20430;-73
2022/09/01 04:34:11;;;;;;;0.20;0.20;;;15.70;62.40;;;;;;6270280;22;20087;-73
2022/09/01 04:36:40;;;;;;;0.20;0.20;;;15.70;62.40;;;;;;6275492;22;20025;-72
2022/09/01 04:39:09;;;;;;;1.00;0.40;;;15.70;62.40;;;;;;6275792;22;20084;-72
2022/09/01 04:41:40;;;;;;;0.22;0.22;;;15.70;62.50;;;;;;6276002;22;20003;-72
2022/09/01 04:44:07;;;;;;;0.70;0.50;;;15.60;62.40;;;;;;6275992;22;20091;-73
2022/09/01 04:46:37;;;;;;;0.30;0.30;;;15.60;62.50;;;;;;6248622;22;20000;-73
2022/09/01 04:49:09;;;;;;;0.30;0.30;;;15.60;62.50;;;;;;6275860;22;20004;-73
2022/09/01 04:51:45;;;;;;;0.20;0.20;;;15.50;62.40;;;;;;6275266;22;20054;-73
2022/09/01 04:54:13;;;;;;;0.47;0.30;;;15.60;62.50;;;;;;6275608;22;19999;-73
2022/09/01 04:56:41;;;;;;;0.63;0.43;;;15.60;62.50;;;;;;6274930;22;20003;-73
2022/09/01 04:59:09;;;;;;;0.30;0.30;;;15.60;62.50;;;;;;6275631;22;20004;-73
2022/09/01 05:01:42;;;;;;;0.20;0.20;;;15.50;62.40;;;;;;6269461;22;20046;-73
2022/09/01 05:04:11;;;;;;;0.28;0.28;;;15.60;62.50;;;;;;6224232;22;20016;-72
2022/09/01 05:06:41;;;;;;;0.28;0.20;;;15.50;62.40;;;;;;6276125;22;20004;-72
2022/09/01 05:09:08;;;;;;;0.13;0.13;;;15.50;62.40;;;;;;6248366;22;20003;-72
2022/09/01 05:11:36;;;;;;;0.20;0.20;;;15.50;63.10;;;;;;6275410;22;20004;-73
2022/09/01 05:14:04;;;;;;;0.10;0.10;;;15.60;62.50;;;;;;6275787;22;20071;-73
2022/09/01 05:16:31;;;;;;;0.28;0.28;;;15.50;62.50;;;;;;6275164;22;20085;-73
2022/09/01 05:18:57;;;;;;;0.20;0.20;;;15.50;62.50;;;;;;6275146;22;20004;-73
2022/09/01 05:21:25;;;;;;;0.30;0.30;;;15.50;62.60;;;;;;6247752;22;20463;-73
2022/09/01 05:23:53;;;;;;;0.20;0.20;;;15.50;62.60;;;;;;6222992;22;20027;-73
2022/09/01 05:26:22;;;;;;;0.30;0.30;;;15.40;62.70;;;;;;6247166;22;20003;-73
2022/09/01 05:28:52;;;;;;;0.22;0.20;;;15.40;62.70;;;;;;6274968;22;20028;-73
2022/09/01 05:31:20;;;;;;;0.22;0.22;;;15.40;62.70;;;;;;6275731;22;20025;-73
2022/09/01 05:33:48;;;;;;;0.65;0.20;;;15.40;62.70;;;;;;6274860;22;20003;-72
2022/09/01 05:36:18;;;;;;;0.38;0.35;;;15.40;62.70;;;;;;6275079;22;20000;-72
2022/09/01 05:38:44;;;;;;;0.38;0.30;;;15.40;62.70;;;;;;6275126;22;20004;-73
2022/09/01 05:41:13;;;;;;;0.30;0.30;;;15.40;62.70;;;;;;6275715;22;20004;-73
2022/09/01 05:43:47;;;;;;;0.43;0.30;;;15.40;62.70;;;;;;6274682;22;20018;-72
2022/09/01 05:46:16;;;;;;;0.30;0.30;;;15.40;62.70;;;;;;6274843;22;20038;-72
2022/09/01 05:48:43;;;;;;;0.50;0.50;;;15.40;62.70;;;;;;6275721;22;20011;-72
2022/09/01 05:51:15;;;;;;;0.30;0.30;;;15.40;62.60;;;;;;6274817;22;20503;-73
2022/09/01 05:53:41;;;;;;;0.30;0.30;;;15.40;62.60;;;;;;6275171;22;19999;-73
2022/09/01 05:56:08;;;;;;;0.20;0.20;;;15.50;62.60;;;;;;6248068;22;20309;-72
2022/09/01 05:58:35;;;;;;;0.40;0.30;;;15.50;62.60;;;;;;6248596;22;20635;-72
2022/09/01 06:01:01;;;;;;;0.32;0.20;;;15.50;62.60;;;;;;6275145;22;20008;-73
2022/09/01 06:03:27;;;;;;;0.30;0.30;;;15.50;62.50;;;;;;6274942;22;19999;-72
2022/09/01 06:05:54;;;;;;;0.10;0.10;;;15.50;62.40;;;;;;6275076;22;20011;-72
2022/09/01 06:08:23;;;;;;;0.30;0.30;;;15.50;62.40;;;;;;6274848;22;20003;-73
2022/09/01 06:10:51;;;;;;;1.25;0.20;;;15.50;62.40;;;;;;6275069;22;19996;-73
2022/09/01 06:13:20;;;;;;;0.20;0.20;;;15.60;62.40;;;;;;6222706;22;19995;-73
2022/09/01 06:15:48;;;;;;;0.30;0.30;;;15.60;62.30;;;;;;6248452;22;20046;-72
2022/09/01 06:18:16;;;;;;;0.20;0.20;;;15.60;62.20;;;;;;6274778;22;20004;-73
2022/09/01 06:20:45;;;;;;;0.63;0.28;;;15.70;62.20;;;;;;6271700;22;20366;-73
2022/09/01 06:23:13;;;;;;;0.30;0.30;;;15.60;62.10;;;;;;6274879;22;20011;-73
2022/09/01 06:25:42;;;;;;;0.20;0.20;;;15.70;62.10;;;;;;6275321;22;20019;-72
2022/09/01 06:28:10;;;;;;;0.20;0.20;;;15.80;62.10;;;;;;6274728;22;20071;-72
2022/09/01 06:30:37;;;;;;;0.30;0.30;;;15.80;62.00;;;;;;6223123;22;20000;-73
2022/09/01 06:33:08;;;;;;;0.47;0.20;;;15.80;61.90;;;;;;6274891;22;20004;-73
2022/09/01 06:35:34;;;;;;;0.30;0.30;;;15.80;61.90;;;;;;6223292;22;20309;-73
2022/09/01 06:38:01;;;;;;;0.28;0.28;;;15.80;61.80;;;;;;6275139;22;20071;-72
2022/09/01 06:40:27;;;;;;;0.30;0.30;;;15.90;61.80;;;;;;6274622;22;20323;-72
2022/09/01 06:42:53;;;;;;;0.30;0.30;;;15.90;61.80;;;;;;6247658;22;20012;-73
2022/09/01 06:45:22;;;;;;;0.73;0.30;;;15.90;61.80;;;;;;6274452;22;20416;-72
2022/09/01 06:47:51;;;;;;;0.30;0.30;;;15.90;61.70;;;;;;6275097;22;20071;-73
2022/09/01 06:50:20;;;;;;;0.38;0.30;;;16.00;61.80;;;;;;6274617;22;20079;-72
2022/09/01 06:52:49;;;;;;;0.30;0.30;;;16.00;61.70;;;;;;6274329;22;20003;-72
2022/09/01 06:55:15;;;;;;;0.20;0.20;;;16.10;61.60;;;;;;6274571;22;20435;-73
2022/09/01 06:57:46;;;;;;;0.35;0.22;;;16.20;61.60;;;;;;6222066;22;20004;-73
2022/09/01 07:00:16;;;;;;;0.20;0.20;;;16.20;61.30;;;;;;6248283;22;20000;-72
2022/09/01 07:02:44;;;;;;;0.38;0.38;;;16.40;61.20;;;;;;6248182;22;20008;-73
2022/09/01 07:05:10;;;;;;;0.30;0.30;;;16.50;61.00;;;;;;6275019;22;20012;-72
2022/09/01 07:07:36;;;;;;;0.30;0.30;;;16.50;60.70;;;;;;6248305;22;20007;-72
2022/09/01 07:10:04;;;;;;;0.22;0.22;;;16.60;60.60;;;;;;6274322;22;20007;-73
2022/09/01 07:12:30;;;;;;;0.43;0.30;;;16.60;60.70;;;;;;6274854;22;20074;-72
2022/09/01 07:14:58;;;;;;;1.02;0.30;;;16.70;60.70;;;;;;6273949;22;20432;-73
2022/09/01 07:17:25;;;;;;;0.30;0.30;;;16.70;60.80;;;;;;6274969;22;20007;-73
2022/09/01 07:19:50;;;;;;;0.30;0.30;;;16.70;60.90;;;;;;6274434;22;20027;-73
2022/09/01 07:22:17;;;;;;;0.43;0.30;;;16.70;61.00;;;;;;6218371;22;20003;-73
2022/09/01 07:24:44;;;;;;;0.30;0.30;;;16.80;61.00;;;;;;6247008;22;20062;-74
2022/09/01 07:27:11;;;;;;;0.57;0.40;;;16.80;60.90;;;;;;6274144;22;20101;-73
2022/09/01 07:29:38;;;;;;;0.30;0.30;;;16.90;60.80;;;;;;6274819;22;20057;-73
2022/09/01 07:32:04;;;;;;;0.50;0.30;;;17.00;60.60;;;;;;6247207;22;20474;-73
2022/09/01 07:34:32;;;;;;;0.22;0.22;;;17.20;60.50;;;;;;6274026;22;20086;-73
2022/09/01 07:36:58;;;;;;;0.15;0.15;;;17.10;60.30;;;;;;6247433;22;20091;-73
2022/09/01 07:39:24;;;;;;;0.20;0.20;;;17.30;60.20;;;;;;6274802;22;20004;-73
2022/09/01 07:41:50;;;;;;;0.22;0.22;;;17.30;60.00;;;;;;6247025;22;20039;-73
2022/09/01 07:44:16;;;;;;;0.95;0.30;;;17.40;60.00;;;;;;6273694;22;20091;-73
2022/09/01 07:46:42;;;;;;;0.68;0.20;;;17.50;59.90;;;;;;6246948;22;20459;-73
2022/09/01 07:49:08;;;;;;;0.20;0.20;;;17.50;59.70;;;;;;6247175;22;20002;-73
2022/09/01 07:51:34;;;;;;;0.95;0.40;;;17.60;59.70;;;;;;6275988;22;20426;-73
2022/09/01 07:54:01;;;;;;;0.20;0.20;;;17.70;59.60;;;;;;6249071;22;20090;-73
2022/09/01 07:56:29;;;;;;;0.20;0.20;;;17.60;59.60;;;;;;6275539;22;20011;-73
2022/09/01 07:58:56;;;;;;;0.30;0.30;;;17.60;59.70;;;;;;6248337;22;20020;-73
2022/09/01 08:01:25;;;;;;;0.30;0.30;;;17.60;59.80;;;;;;6248395;22;20011;-73
2022/09/01 08:03:55;;;;;;;0.20;0.20;;;17.60;59.90;;;;;;6275604;22;20016;-73
2022/09/01 08:06:25;;;;;;;0.30;0.30;;;17.70;59.90;;;;;;6247525;22;20035;-73
2022/09/01 08:08:52;;;;;;;0.30;0.30;;;17.80;59.90;;;;;;6248898;22;20238;-73
2022/09/01 08:11:21;;;;;;;0.30;0.30;;;17.90;59.70;;;;;;6249009;22;20000;-74
2022/09/01 08:13:48;;;;;;;0.30;0.30;;;18.10;59.40;;;;;;6275772;22;20352;-73
2022/09/01 08:16:14;;;;;;;1.15;0.50;;;18.40;59.20;;;;;;6249332;22;20034;-73
2022/09/01 08:18:41;;;;;;;1.38;0.30;;;18.60;58.80;;;;;;6248396;22;20004;-73
2022/09/01 08:21:09;;;;;;;0.40;0.40;;;18.80;58.40;;;;;;6248692;22;20007;-73
2022/09/01 08:23:36;;;;;;;0.95;0.40;;;19.00;58.00;;;;;;6275241;22;20012;-72
2022/09/01 08:26:09;;;;;;;0.32;0.32;;;19.20;57.70;;;;;;6248931;22;19996;-72
2022/09/01 08:28:34;;;;;;;0.40;0.40;;;19.50;57.50;;;;;;6275161;22;20070;-72
2022/09/01 08:31:10;;;;;;;0.40;0.40;;;19.70;57.40;;;;;;6275370;22;20509;-72
2022/09/01 08:33:37;;;;;;;0.30;0.30;;;19.90;57.10;;;;;;6248010;22;20031;-73
2022/09/01 08:36:05;;;;;;;0.20;0.20;;;20.10;56.90;;;;;;6276009;22;20465;-72
2022/09/01 08:38:31;;;;;;;0.60;0.30;;;20.20;56.70;;;;;;6275956;22;20026;-73
2022/09/01 08:40:59;;;;;;;0.40;0.40;;;20.30;56.50;;;;;;6248449;22;19995;-73
2022/09/01 08:43:51;;;;;;;0.40;0.40;;;20.50;56.50;;;;;;6276277;22;21279;-73
2022/09/01 08:46:36;;;;;;;0.45;0.32;;;20.60;56.30;;;;;;6275833;22;20014;-73
2022/09/01 08:49:16;;;;;;;0.22;0.22;;;20.80;56.20;;;;;;6272374;22;20008;-73
2022/09/01 08:51:52;;;;;;;0.30;0.30;;;21.00;56.00;;;;;;6248025;22;20030;-73
2022/09/01 08:54:33;;;;;;;0.40;0.35;;;21.20;55.90;;;;;;6275217;22;20014;-73
2022/09/01 08:57:03;;;;;;;;;;;21.30;55.60;;;;;;6246836;22;20007;-73
2022/09/01 08:59:29;;;;;;;0.67;0.40;;;21.40;55.60;;;;;;6248424;22;19905;-73
2022/09/01 09:02:15;;;;;;;0.30;0.30;;;21.60;55.50;;;;;;6275323;22;20051;-73
2022/09/01 09:05:01;;;;;;;0.30;0.30;;;21.50;55.30;;;;;;6275164;22;20031;-73
2022/09/01 09:08:05;;;;;;;0.35;0.30;;;21.80;55.20;;;;;;6271985;22;20855;-73
2022/09/01 09:11:05;;;;;;;0.30;0.30;;;21.80;55.00;;;;;;6274831;22;20000;-73
2022/09/01 09:13:51;;;;;;;0.30;0.30;;;22.00;55.00;;;;;;6275108;22;19999;-73
2022/09/01 09:16:23;;;;;;;0.40;0.40;;;22.10;54.90;;;;;;6275374;22;19999;-73
2022/09/01 09:19:00;;;;;;;0.40;0.30;;;22.30;54.70;;;;;;6275007;22;20023;-73
2022/09/01 09:21:32;;;;;;;0.43;0.40;;;22.40;54.50;;;;;;6275582;22;20007;-73
2022/09/01 09:24:14;;;;;;;1.05;0.47;;;22.50;54.30;;;;;;6275452;22;20008;-73
2022/09/01 09:26:40;;;;;;;0.50;0.30;;;22.50;54.10;;;;;;6275574;22;20004;-73
2022/09/01 09:29:06;;;;;;;0.30;0.30;;;22.60;54.10;;;;;;6222721;22;20126;-73
2022/09/01 09:31:42;;;;;;;1.15;0.43;;;22.70;54.10;;;;;;6247986;22;20476;-72
2022/09/01 09:34:26;;;;;;;0.30;0.30;;;22.80;53.90;;;;;;6250308;22;20080;-73
2022/09/01 09:36:52;;;;;;;0.47;0.30;;;22.90;53.70;;;;;;6248421;22;20424;-73
2022/09/01 09:39:18;;;;;;;0.75;0.28;;;23.10;53.60;;;;;;6274839;22;20062;-72
2022/09/01 09:42:08;;;;;;;0.20;0.20;;;23.10;53.40;;;;;;6274832;22;20054;-73
2022/09/01 09:44:43;;;;;;;0.30;0.30;;;23.10;53.20;;;;;;6247860;22;20015;-72
2022/09/01 09:47:29;;;;;;;0.63;0.40;;;23.20;53.20;;;;;;6249335;22;20008;-73
2022/09/01 09:50:22;;;;;;;0.38;0.38;;;23.20;53.00;;;;;;6252141;22;20011;-72
2022/09/01 09:52:50;;;;;;;0.52;0.25;;;23.30;52.80;;;;;;6247683;22;20000;-73
2022/09/01 09:55:27;;;;;;;0.30;0.30;;;23.40;52.80;;;;;;6247765;22;20010;-72
2022/09/01 09:57:57;;;;;;;0.28;0.28;;;23.50;52.60;;;;;;6275288;22;20003;-73
2022/09/01 10:00:28;;;;;;;0.68;0.30;;;23.50;52.40;;;;;;6275610;22;20003;-73
2022/09/01 10:03:01;;;;;;;0.30;0.30;;;23.50;52.10;;;;;;6275035;22;20427;-73
2022/09/01 10:05:38;;;;;;;0.30;0.30;;;23.50;52.00;;;;;;6275399;22;20003;-72
2022/09/01 10:08:08;;;;;;;0.30;0.30;;;23.50;52.10;;;;;;6249248;22;20034;-73
2022/09/01 10:10:43;;;;;;;0.22;0.20;;;23.40;51.90;;;;;;6222342;22;20019;-73
2022/09/01 10:13:16;;;;;;;0.30;0.30;;;23.40;51.70;;;;;;6249222;22;20079;-72
2022/09/01 10:15:48;;;;;;;0.28;0.28;;;23.30;51.70;;;;;;6274949;22;20500;-72
2022/09/01 10:18:17;;;;;;;0.30;0.30;;;23.30;51.60;;;;;;6275013;22;20010;-73
2022/09/01 10:21:00;;;;;;;0.30;0.30;;;23.40;51.60;;;;;;6275472;22;20006;-73
2022/09/01 10:23:29;;;;;;;0.30;0.30;;;23.30;51.50;;;;;;6251066;22;20008;-73
2022/09/01 10:26:04;;;;;;;0.30;0.30;;;23.30;51.40;;;;;;6274816;22;20015;-72
2022/09/01 10:28:32;;;;;;;0.30;0.30;;;23.40;51.20;;;;;;6275123;22;20165;-73
2022/09/01 10:31:00;;;;;;;0.30;0.30;;;23.30;51.10;;;;;;6274683;22;20443;-73
2022/09/01 10:33:26;;;;;;;0.30;0.30;;;23.30;51.00;;;;;;6274875;22;20019;-72
2022/09/01 10:35:53;;;;;;;0.30;0.30;;;23.30;50.90;;;;;;6274794;22;20006;-72
2022/09/01 10:38:24;;;;;;;0.30;0.30;;;23.20;50.90;;;;;;6247400;22;20015;-72
2022/09/01 10:41:10;;;;;;;0.30;0.30;;;23.30;50.70;;;;;;6274308;22;20305;-72
2022/09/01 10:43:46;;;;;;;1.75;0.45;;;23.40;50.60;;;;;;6274216;22;20011;-72
2022/09/01 10:46:41;;;;;;;0.20;0.20;;;23.30;50.50;;;;;;6271627;22;19996;-72
2022/09/01 10:49:19;;;;;;;0.20;0.20;;;23.30;50.40;;;;;;6228639;22;20015;-72
2022/09/01 10:51:45;;;;;;;0.30;0.30;;;23.20;50.30;;;;;;6247183;22;20022;-73
2022/09/01 10:54:51;;;;;;;0.30;0.30;;;23.30;50.30;;;;;;6247648;22;20007;-72
2022/09/01 10:57:36;;;;;;;0.30;0.30;;;23.30;50.00;;;;;;6252002;22;20074;-73
2022/09/01 11:00:33;;;;;;;0.30;0.30;;;23.20;49.90;;;;;;6274063;22;20007;-72
2022/09/01 11:03:32;;;;;;;0.20;0.20;;;23.20;49.80;;;;;;6274294;22;20081;-72
2022/09/01 11:06:06;;;;;;;0.50;0.30;;;23.30;49.80;;;;;;6248944;22;20955;-72
2022/09/01 11:08:55;;;;;;;0.22;0.22;;;23.30;49.80;;;;;;6247231;22;20428;-73
2022/09/01 11:11:38;;;;;;;0.20;0.20;;;23.30;49.60;;;;;;6274607;22;20490;-72
2022/09/01 11:14:17;;;;;;;0.30;0.30;;;23.40;49.40;;;;;;6274947;22;20004;-72
2022/09/01 11:17:17;;;;;;;0.30;0.30;;;23.40;49.30;;;;;;6274009;22;20011;-72
2022/09/01 11:20:07;;;;;;;0.20;0.20;;;23.50;49.20;;;;;;6274114;22;20008;-72
2022/09/01 11:22:37;;;;;;;0.17;0.17;;;23.60;49.10;;;;;;6252029;22;20061;-72
2022/09/01 11:25:37;;;;;;;0.20;0.20;;;23.60;48.90;;;;;;6246959;22;20016;-72
2022/09/01 11:28:07;;;;;;;0.20;0.20;;;23.70;48.70;;;;;;6275694;22;20000;-72
2022/09/01 11:30:49;;;;;;;0.20;0.20;;;23.80;48.70;;;;;;6275846;22;19999;-72
2022/09/01 11:33:38;;;;;;;0.20;0.20;;;23.80;48.50;;;;;;6276302;22;19999;-72
2022/09/01 11:36:13;;;;;;;0.28;0.28;;;23.90;48.30;;;;;;6275434;22;20067;-72
2022/09/01 11:38:50;;;;;;;0.20;0.20;;;24.00;48.30;;;;;;6275512;22;20000;-72
2022/09/01 11:41:31;;;;;;;0.30;0.30;;;24.10;48.10;;;;;;6275706;22;20003;-72
2022/09/01 11:43:59;;;;;;;0.28;0.20;;;24.20;48.00;;;;;;6275533;22;20467;-72
2022/09/01 11:46:31;;;;;;;0.15;0.15;;;24.30;47.80;;;;;;6276189;22;19999;-72
2022/09/01 11:49:00;;;;;;;0.28;0.20;;;24.40;47.70;;;;;;6275814;22;20002;-72
2022/09/01 11:51:26;;;;;;;0.20;0.20;;;24.40;47.60;;;;;;6275658;22;20435;-72
2022/09/01 11:53:59;;;;;;;0.20;0.20;;;24.40;47.50;;;;;;6276288;22;20000;-72
2022/09/01 11:56:27;;;;;;;0.30;0.30;;;24.50;47.40;;;;;;6223273;22;20035;-72
2022/09/01 11:58:53;;;;;;;0.30;0.30;;;24.50;47.30;;;;;;6275991;22;20447;-72
2022/09/01 12:01:22;;;;;;;0.40;0.40;;;24.70;47.30;;;;;;6275930;22;20007;-72
2022/09/01 12:03:51;;;;;;;0.30;0.30;;;24.60;47.20;;;;;;6276150;22;20049;-72
2022/09/01 12:06:25;;;;;;;0.30;0.25;;;24.60;47.20;;;;;;6249069;22;20056;-72
2022/09/01 12:08:56;;;;;;;0.50;0.43;;;24.60;47.10;;;;;;6250342;22;20007;-73
2022/09/01 12:11:29;;;;;;;0.28;0.28;;;24.70;47.00;;;;;;6275349;22;20008;-73
2022/09/01 12:13:58;;;;;;;0.35;0.30;;;24.70;47.00;;;;;;6275937;22;20061;-72
2022/09/01 12:16:25;;;;;;;0.85;0.32;;;24.70;47.00;;;;;;6249281;22;20432;-72
2022/09/01 12:18:53;;;;;;;0.35;0.30;;;24.60;46.90;;;;;;6275992;22;20023;-72
2022/09/01 12:21:25;;;;;;;0.28;0.28;;;24.60;46.80;;;;;;6276071;22;20000;-72
2022/09/01 12:23:50;;;;;;;0.40;0.30;;;24.70;46.80;;;;;;6275822;22;20006;-72
2022/09/01 12:26:23;;;;;;;0.30;0.30;;;24.70;46.70;;;;;;6276002;22;20000;-72
2022/09/01 12:28:49;;;;;;;0.22;0.22;;;24.70;46.60;;;;;;6275652;22;19999;-73
2022/09/01 12:31:20;;;;;;;0.30;0.30;;;24.70;46.70;;;;;;6248409;22;20319;-72
2022/09/01 12:33:47;;;;;;;0.20;0.20;;;24.70;46.70;;;;;;6275575;22;20355;-72
2022/09/01 12:36:26;;;;;;;0.52;0.28;;;24.70;46.60;;;;;;6248238;22;19996;-72
2022/09/01 12:38:54;;;;;;;0.30;0.30;;;24.90;46.60;;;;;;6247913;22;20007;-72
2022/09/01 12:41:30;;;;;;;0.30;0.30;;;24.90;46.50;;;;;;6275989;22;20015;-72
2022/09/01 12:43:55;;;;;;;0.40;0.30;;;24.90;46.30;;;;;;6275264;22;20008;-72
2022/09/01 12:46:43;;;;;;;0.38;0.38;;;24.90;46.20;;;;;;6248397;22;20073;-73
2022/09/01 12:49:33;;;;;;;0.30;0.30;;;24.90;46.30;;;;;;6275568;22;20022;-72
2022/09/01 12:52:24;;;;;;;0.20;0.20;;;24.90;46.40;;;;;;6275589;22;19996;-72
2022/09/01 12:55:08;;;;;;;0.30;0.30;;;24.90;46.30;;;;;;6276029;22;19999;-72
2022/09/01 12:57:37;;;;;;;0.35;0.35;;;24.90;46.30;;;;;;6275083;22;20027;-72
2022/09/01 13:00:19;;;;;;;0.20;0.20;;;25.00;46.80;;;;;;6275174;22;20085;-72
2022/09/01 13:02:51;;;;;;;0.30;0.20;;;25.00;46.10;;;;;;6248137;22;20014;-72
2022/09/01 13:05:25;;;;;;;0.20;0.20;;;25.00;46.10;;;;;;6223673;22;20065;-72
2022/09/01 13:07:54;;;;;;;0.30;0.30;;;25.00;46.10;;;;;;6275313;22;20030;-72
2022/09/01 13:10:22;;;;;;;0.40;0.40;;;25.10;46.10;;;;;;6275969;22;19995;-72
2022/09/01 13:12:47;;;;;;;0.32;0.32;;;25.10;46.10;;;;;;6275606;22;20011;-72